Thunder radar more information blitzortung!


avis per Snow/Ice more information rain snow radar


Visita la nostra xarxa de llocs de meteo:

Template documentation
and downloads

And another site



Snow/Ice From: 26-02-2018 12:00 Until: 27-02-2018 05:59 warning for: Snow/Ice Level: Yellow info button

Pagina Historial Weather Underground text

Diari Resum January 29, 2018 Unitats:  Imperial    Mètric   Tant
« Previous Dia
SegĂźent Dia »
Diari Setmana Mensual Anual Personalitzada
  Maxima: Minima: Media:
Temperatura: TemperatureC °F 3.8 °F 10.5 °F
Punt de rosada: DewpointC °F 0.1 °F 3.6 °F
Humitat: Humidity % 52 % 63 %
Wind Speed: WindSpeedKMH mph 0.0 mph 3.8 mph
RĂ fegues de vent: WindSpeedGustKMH mph - -
Vent:- - NNE
Pression baro: PressurehPa in 1030.7 in -
Precipitacions: 0.0 in    
Historical Graphs
 
 
Dades de taula per January 29, 2018
Temps Temperatura Punt de rosada Pression baro Vent Wind Speed RĂ fegues de vent Humitat Rainfall Rate (Hourly)
TemperatureC °F DewpointC °F PressurehPa in Calm     Humidity % HourlyPrecipMM in
00:00 7.5 °F 2.4 °F 1038.8 in NE 1.9 mph 1.9 mph 70 % 0.0 in
00:05 7.5 °F 2.4 °F 1038.8 in NE 5.6 mph 5.6 mph 70 % 0.0 in
00:10 7.6 °F 2.5 °F 1038.8 in NE 3.9 mph 3.9 mph 70 % 0.0 in
00:15 7.6 °F 2.5 °F 1038.8 in NE 3.7 mph 3.7 mph 70 % 0.0 in
00:20 7.7 °F 2.4 °F 1038.8 in NE 5.6 mph 5.6 mph 69 % 0.0 in
00:25 7.7 °F 2.4 °F 1038.8 in NE 3.9 mph 3.9 mph 69 % 0.0 in
00:30 7.6 °F 2.3 °F 1038.8 in NE 5.6 mph 5.6 mph 69 % 0.0 in
00:35 7.6 °F 2.3 °F 1037.8 in NE 5.0 mph 5.0 mph 69 % 0.0 in
00:40 7.5 °F 2.2 °F 1037.8 in NE 3.9 mph 3.9 mph 69 % 0.0 in
00:45 7.4 °F 2.1 °F 1037.8 in NE 3.7 mph 3.7 mph 69 % 0.0 in
00:50 7.3 °F 2.0 °F 1037.8 in NE 3.7 mph 3.7 mph 69 % 0.0 in
00:55 7.3 °F 2.0 °F 1037.8 in NE 3.7 mph 3.7 mph 69 % 0.0 in
01:00 7.3 °F 2.2 °F 1038.8 in NE 1.9 mph   70 % 0.0 in
01:05 7.4 °F 2.3 °F 1038.8 in NE 3.7 mph 3.7 mph 70 % 0.0 in
01:10 7.4 °F 2.3 °F 1038.8 in NE 1.9 mph   70 % 0.0 in
01:15 7.3 °F 2.2 °F 1037.8 in NE 1.9 mph 1.9 mph 70 % 0.0 in
01:20 7.2 °F 2.1 °F 1037.8 in Calm     70 % 0.0 in
01:25 7.2 °F 2.1 °F 1037.8 in NE 3.7 mph 3.7 mph 70 % 0.0 in
01:30 7.4 °F 2.3 °F 1037.8 in NE 1.9 mph 1.9 mph 70 % 0.0 in
01:35 7.4 °F 2.3 °F 1037.8 in NE 3.7 mph 3.7 mph 70 % 0.0 in
01:40 7.3 °F 2.2 °F 1037.8 in NE 1.9 mph 1.9 mph 70 % 0.0 in
01:45 7.4 °F 2.1 °F 1037.8 in NE 1.9 mph 2.3 mph 69 % 0.0 in
01:50 7.6 °F 2.3 °F 1037.8 in NE 3.7 mph 3.7 mph 69 % 0.0 in
01:55 7.6 °F 2.3 °F 1037.8 in NE 1.9 mph 1.9 mph 69 % 0.0 in
02:00 4.7 °F 0.7 °F 1036.8 in NNE 1.6 mph 3.2 mph 75 % 0.0 in
02:10 4.7 °F 0.7 °F 1036.8 in NNE 1.6 mph 1.6 mph 75 % 0.0 in
02:20 4.8 °F 0.7 °F 1036.8 in NNE 1.6 mph 3.2 mph 75 % 0.0 in
02:30 5.0 °F 1.1 °F 1036.8 in NNE 1.6 mph 1.6 mph 76 % 0.0 in
02:40 5.2 °F 1.1 °F 1036.8 in Calm   3.2 mph 75 % 0.0 in
02:50 5.3 °F 1.2 °F 1036.8 in NNE 1.6 mph 3.2 mph 75 % 0.0 in
03:00 5.6 °F 1.5 °F 1036.8 in Calm   1.6 mph 75 % 0.0 in
03:10 5.9 °F 1.6 °F 1036.8 in NNE 1.6 mph 3.2 mph 74 % 0.0 in
03:20 6.3 °F 2.0 °F 1037.8 in NNE 3.2 mph 4.8 mph 74 % 0.0 in
03:30 6.7 °F 2.4 °F 1037.8 in NNE 1.6 mph 3.2 mph 74 % 0.0 in
03:40 7.1 °F 2.6 °F 1036.8 in NNE 1.6 mph 4.8 mph 73 % 0.0 in
03:50 7.5 °F 2.8 °F 1037.8 in NNE 1.6 mph 3.2 mph 72 % 0.0 in
04:00 8.1 °F 3.2 °F 1037.8 in NNE 1.6 mph 1.6 mph 71 % 0.0 in
04:10 8.4 °F 3.2 °F 1037.8 in NNE 1.6 mph 3.2 mph 70 % 0.0 in
04:20 8.8 °F 3.6 °F 1037.8 in NNE 1.6 mph 3.2 mph 70 % 0.0 in
04:30 8.7 °F 3.3 °F 1037.8 in NNE 4.8 mph 4.8 mph 69 % 0.0 in
04:40 9.0 °F 3.4 °F 1037.8 in NNE 1.6 mph 3.2 mph 68 % 0.0 in
10:47 9.3 °F 3.7 °F 1037.8 in NNE 3.7 mph 3.7 mph 68 % 0.0 in
10:52 9.4 °F 3.8 °F 1037.8 in NNE 5.6 mph 5.6 mph 68 % 0.0 in
10:57 9.4 °F 3.6 °F 1037.8 in NNE 9.3 mph 9.3 mph 67 % 0.0 in
11:02 9.3 °F 3.5 °F 1037.8 in NNE 7.4 mph 7.4 mph 67 % 0.0 in
11:07 9.6 °F 3.8 °F 1037.8 in NNE 5.6 mph 5.6 mph 67 % 0.0 in
11:12 9.6 °F 3.6 °F 1037.8 in NNE 3.7 mph 3.7 mph 66 % 0.0 in
11:17 9.8 °F 3.7 °F 1036.8 in NNE 6.1 mph 6.4 mph 66 % 0.0 in
11:22 10.0 °F 3.9 °F 1036.8 in NNE 6.1 mph 6.4 mph 66 % 0.0 in
11:27 10.4 °F 4.1 °F 1036.8 in NNE 3.7 mph 3.7 mph 65 % 0.0 in
11:32 10.4 °F 4.1 °F 1037.8 in NNE 5.6 mph 5.6 mph 65 % 0.0 in
11:37 10.6 °F 4.3 °F 1037.8 in NNE 6.1 mph 6.1 mph 65 % 0.0 in
11:42 10.7 °F 4.2 °F 1037.8 in NNE 5.6 mph 5.6 mph 64 % 0.0 in
11:47 10.7 °F 4.2 °F 1037.8 in NNE 5.6 mph 5.6 mph 64 % 0.0 in
11:52 10.9 °F 4.3 °F 1037.8 in NNE 5.6 mph 5.6 mph 64 % 0.0 in
11:57 11.1 °F 4.6 °F 1037.8 in NNE 5.0 mph 5.0 mph 64 % 0.0 in
12:02 11.0 °F 4.2 °F 1037.8 in NNE 7.4 mph 7.4 mph 63 % 0.0 in
12:07 11.2 °F 4.4 °F 1037.8 in NNE 4.7 mph 4.7 mph 63 % 0.0 in
12:12 11.4 °F 4.6 °F 1037.8 in NNE 5.6 mph 5.6 mph 63 % 0.0 in
12:17 11.2 °F 4.2 °F 1035.8 in NNE 5.6 mph 5.6 mph 62 % 0.0 in
12:22 11.3 °F 4.3 °F 1035.8 in NNE 3.7 mph 3.7 mph 62 % 0.0 in
12:27 11.6 °F 4.8 °F 1035.8 in NNE 3.7 mph 3.7 mph 63 % 0.0 in
12:32 11.8 °F 4.7 °F 1035.8 in NNE 4.7 mph 4.7 mph 62 % 0.0 in
12:37 12.0 °F 4.9 °F 1035.8 in NNE 3.7 mph 3.7 mph 62 % 0.0 in
12:42 12.0 °F 4.7 °F 1035.8 in NNE 5.3 mph 5.3 mph 61 % 0.0 in
12:47 12.2 °F 5.1 °F 1035.8 in NNE 3.7 mph 3.7 mph 62 % 0.0 in
12:52 12.6 °F 5.5 °F 1035.8 in NNE 3.7 mph 3.7 mph 62 % 0.0 in
12:57 12.7 °F 5.6 °F 1035.8 in NNE 4.2 mph 4.2 mph 62 % 0.0 in
13:02 12.7 °F 5.4 °F 1035.8 in NNE 7.4 mph 7.4 mph 61 % 0.0 in
13:07 12.8 °F 5.4 °F 1035.8 in NNE 5.6 mph 5.6 mph 61 % 0.0 in
13:12 12.7 °F 5.4 °F 1035.8 in NNE 4.2 mph 4.2 mph 61 % 0.0 in
13:17 13.0 °F 5.7 °F 1034.8 in NNE 5.6 mph 5.6 mph 61 % 0.0 in
13:22 13.0 °F 5.4 °F 1034.8 in NNE 7.4 mph 7.4 mph 60 % 0.0 in
13:27 13.2 °F 5.6 °F 1034.8 in NNE 7.4 mph 7.4 mph 60 % 0.0 in
13:32 13.3 °F 5.7 °F 1035.8 in NNE 3.9 mph 4.7 mph 60 % 0.0 in
13:37 13.4 °F 5.6 °F 1035.8 in NNE 7.4 mph 7.4 mph 59 % 0.0 in
13:42 13.4 °F 5.6 °F 1035.8 in NNE 3.9 mph 3.9 mph 59 % 0.0 in
13:47 13.5 °F 5.9 °F 1034.8 in NNE 3.7 mph 3.7 mph 60 % 0.0 in
13:52 13.5 °F 5.6 °F 1034.8 in NNE 5.6 mph 5.6 mph 59 % 0.0 in
13:57 13.7 °F 5.6 °F 1034.8 in NNE 5.6 mph 5.6 mph 58 % 0.0 in
14:02 13.9 °F 6.0 °F 1034.8 in NNE 5.6 mph 5.6 mph 59 % 0.0 in
14:07 14.3 °F 6.6 °F 1034.8 in NNE 7.4 mph 7.4 mph 60 % 0.0 in
14:12 14.3 °F 6.4 °F 1034.8 in NNE 7.4 mph 7.4 mph 59 % 0.0 in
14:17 14.4 °F 6.2 °F 1034.8 in NNE 3.7 mph 3.7 mph 58 % 0.0 in
14:22 14.5 °F 6.3 °F 1034.8 in NNE 5.8 mph 5.8 mph 58 % 0.0 in
14:27 14.5 °F 6.1 °F 1034.8 in NNE 5.6 mph 5.6 mph 57 % 0.0 in
14:32 15.0 °F 7.1 °F 1033.7 in NNE 3.7 mph 3.7 mph 59 % 0.0 in
14:37 15.3 °F 7.3 °F 1033.7 in NNE 5.8 mph 5.8 mph 59 % 0.0 in
14:42 15.4 °F 7.2 °F 1033.7 in NNE 7.4 mph 7.4 mph 58 % 0.0 in
14:47 15.4 °F 7.2 °F 1033.7 in NNE 10.0 mph 10.0 mph 58 % 0.0 in
14:52 15.3 °F 6.6 °F 1033.7 in North 9.3 mph 9.3 mph 56 % 0.0 in
14:57 15.8 °F 7.3 °F 1033.7 in North 7.4 mph 7.4 mph 57 % 0.0 in
15:02 15.8 °F 7.1 °F 1033.7 in North 9.5 mph 9.5 mph 56 % 0.0 in
15:07 15.8 °F 7.1 °F 1033.7 in North 9.3 mph 9.3 mph 56 % 0.0 in
15:12 16.0 °F 6.9 °F 1033.7 in North 9.3 mph 9.3 mph 55 % 0.0 in
15:17 15.8 °F 7.1 °F 1033.7 in North 9.3 mph 9.3 mph 56 % 0.0 in
15:22 16.1 °F 7.1 °F 1033.7 in North 9.0 mph 9.0 mph 55 % 0.0 in
15:27 16.3 °F 7.2 °F 1033.7 in North 9.7 mph 9.7 mph 55 % 0.0 in
15:32 16.3 °F 7.2 °F 1033.7 in North 9.3 mph 9.3 mph 55 % 0.0 in
15:37 16.3 °F 7.2 °F 1033.7 in North 7.4 mph 7.4 mph 55 % 0.0 in
15:42 16.2 °F 6.9 °F 1033.7 in North 11.1 mph 11.1 mph 54 % 0.0 in
15:47 16.3 °F 7.2 °F 1033.7 in North 5.6 mph 5.6 mph 55 % 0.0 in
15:52 16.6 °F 7.2 °F 1033.7 in North 5.6 mph 5.6 mph 54 % 0.0 in
15:57 16.7 °F 7.6 °F 1033.7 in North 5.6 mph 5.6 mph 55 % 0.0 in
16:02 16.8 °F 7.4 °F 1033.7 in North 9.3 mph 9.3 mph 54 % 0.0 in
16:07 16.7 °F 7.3 °F 1033.7 in North 7.4 mph 7.4 mph 54 % 0.0 in
16:12 16.7 °F 7.3 °F 1033.7 in North 7.4 mph 7.4 mph 54 % 0.0 in
16:17 16.7 °F 7.3 °F 1033.7 in North 5.6 mph 5.6 mph 54 % 0.0 in
16:22 16.6 °F 7.0 °F 1033.7 in North 9.3 mph 9.3 mph 53 % 0.0 in
16:27 16.6 °F 7.0 °F 1033.7 in North 5.6 mph 5.6 mph 53 % 0.0 in
16:32 16.6 °F 7.0 °F 1033.7 in North 7.4 mph 7.4 mph 53 % 0.0 in
16:37 16.5 °F 6.9 °F 1033.7 in North 3.7 mph 3.7 mph 53 % 0.0 in
16:42 16.4 °F 6.8 °F 1033.7 in North 5.6 mph 5.6 mph 53 % 0.0 in
16:47 16.3 °F 6.7 °F 1033.7 in North 9.0 mph 9.0 mph 53 % 0.0 in
16:52 16.2 °F 6.6 °F 1033.7 in North 7.4 mph 7.4 mph 53 % 0.0 in
16:57 16.1 °F 6.5 °F 1033.7 in North 7.4 mph 7.4 mph 53 % 0.0 in
17:02 16.0 °F 6.2 °F 1033.7 in North 5.6 mph 5.6 mph 52 % 0.0 in
17:07 15.9 °F 6.1 °F 1033.7 in North 9.3 mph 9.3 mph 52 % 0.0 in
17:12 15.6 °F 5.8 °F 1033.7 in North 7.4 mph 7.4 mph 52 % 0.0 in
17:17 15.5 °F 5.7 °F 1032.7 in North 7.4 mph 7.4 mph 52 % 0.0 in
17:22 15.4 °F 5.6 °F 1032.7 in North 3.9 mph 3.9 mph 52 % 0.0 in
17:27 15.3 °F 5.5 °F 1032.7 in North 3.7 mph 3.7 mph 52 % 0.0 in
17:32 15.1 °F 5.3 °F 1033.7 in North 4.2 mph 4.2 mph 52 % 0.0 in
17:37 14.8 °F 5.1 °F 1033.7 in North 2.6 mph 2.6 mph 52 % 0.0 in
17:42 14.5 °F 4.8 °F 1033.7 in North 7.4 mph 7.4 mph 52 % 0.0 in
17:47 14.2 °F 4.5 °F 1033.7 in North 3.7 mph 3.7 mph 52 % 0.0 in
17:52 13.9 °F 4.2 °F 1033.7 in North 3.7 mph 3.7 mph 52 % 0.0 in
17:57 13.5 °F 3.8 °F 1033.7 in North 3.7 mph 3.7 mph 52 % 0.0 in
18:02 13.2 °F 3.8 °F 1033.7 in North 3.7 mph 3.7 mph 53 % 0.0 in
18:07 13.0 °F 3.6 °F 1033.7 in North 3.7 mph 3.7 mph 53 % 0.0 in
18:12 12.8 °F 3.4 °F 1033.7 in North 3.9 mph 4.2 mph 53 % 0.0 in
18:17 12.6 °F 3.6 °F 1033.7 in North 3.7 mph 3.7 mph 54 % 0.0 in
18:22 12.3 °F 3.2 °F 1033.7 in North 3.7 mph 3.7 mph 54 % 0.0 in
18:27 12.2 °F 3.2 °F 1033.7 in North 3.7 mph 3.7 mph 54 % 0.0 in
18:32 12.0 °F 3.2 °F 1033.7 in North 3.7 mph 3.7 mph 55 % 0.0 in
18:37 11.9 °F 3.1 °F 1033.7 in North 5.6 mph 5.6 mph 55 % 0.0 in
18:42 11.8 °F 3.1 °F 1033.7 in North 3.7 mph 3.7 mph 55 % 0.0 in
18:47 11.7 °F 3.2 °F 1033.7 in North 3.9 mph 3.9 mph 56 % 0.0 in
18:52 11.7 °F 3.2 °F 1033.7 in North 3.7 mph 3.7 mph 56 % 0.0 in
18:57 11.7 °F 3.4 °F 1033.7 in North 3.7 mph 3.7 mph 57 % 0.0 in
19:02 11.7 °F 3.4 °F 1033.7 in North 3.7 mph 3.7 mph 57 % 0.0 in
19:07 11.6 °F 3.6 °F 1033.7 in North 4.7 mph 4.7 mph 58 % 0.0 in
19:12 11.5 °F 3.5 °F 1033.7 in North 3.7 mph 3.7 mph 58 % 0.0 in
19:17 11.4 °F 3.4 °F 1033.7 in North 3.7 mph 3.7 mph 58 % 0.0 in
19:22 11.3 °F 3.3 °F 1033.7 in North 3.7 mph 3.7 mph 58 % 0.0 in
19:27 11.2 °F 3.2 °F 1033.7 in North 3.9 mph 3.9 mph 58 % 0.0 in
19:32 11.2 °F 3.2 °F 1033.7 in North 3.7 mph 3.7 mph 58 % 0.0 in
19:37 11.1 °F 3.2 °F 1033.7 in North 3.7 mph   58 % 0.0 in
19:42 10.9 °F 2.9 °F 1033.7 in Calm     58 % 0.0 in
19:47 10.8 °F 2.8 °F 1032.7 in Calm     58 % 0.0 in
19:52 10.7 °F 3.0 °F 1032.7 in Calm     59 % 0.0 in
19:57 10.5 °F 2.8 °F 1032.7 in North 3.7 mph   59 % 0.0 in
20:02 10.1 °F 2.4 °F 1033.7 in North 3.7 mph 3.7 mph 59 % 0.0 in
20:07 10.0 °F 2.6 °F 1033.7 in North 1.9 mph 1.9 mph 60 % 0.0 in
20:12 9.9 °F 2.5 °F 1033.7 in Calm     60 % 0.0 in
20:17 9.8 °F 2.4 °F 1033.7 in North 3.7 mph 3.7 mph 60 % 0.0 in
20:22 9.8 °F 2.4 °F 1033.7 in North 1.9 mph 1.9 mph 60 % 0.0 in
20:27 9.7 °F 2.6 °F 1033.7 in North 3.2 mph 3.2 mph 61 % 0.0 in
20:32 9.6 °F 2.4 °F 1033.7 in North 2.3 mph 2.3 mph 61 % 0.0 in
20:37 9.6 °F 2.4 °F 1033.7 in North 1.9 mph 1.9 mph 61 % 0.0 in
20:42 9.5 °F 2.3 °F 1033.7 in Calm     61 % 0.0 in
20:47 9.5 °F 2.3 °F 1033.7 in North 1.9 mph   61 % 0.0 in
20:52 9.4 °F 2.5 °F 1033.7 in Calm     62 % 0.0 in
20:57 9.3 °F 2.4 °F 1033.7 in Calm     62 % 0.0 in
21:02 9.2 °F 2.3 °F 1033.7 in Calm     62 % 0.0 in
21:07 9.1 °F 2.2 °F 1033.7 in North 1.9 mph   62 % 0.0 in
21:12 9.0 °F 2.3 °F 1033.7 in Calm     63 % 0.0 in
21:17 9.0 °F 2.3 °F 1033.7 in Calm     63 % 0.0 in
21:22 8.9 °F 2.2 °F 1033.7 in North 3.7 mph 3.7 mph 63 % 0.0 in
21:27 8.9 °F 2.2 °F 1033.7 in North 1.9 mph   63 % 0.0 in
21:32 8.8 °F 2.1 °F 1032.7 in Calm     63 % 0.0 in
21:37 8.7 °F 2.1 °F 1032.7 in North 1.4 mph   63 % 0.0 in
21:42 8.7 °F 2.1 °F 1032.7 in North 3.7 mph 3.7 mph 63 % 0.0 in
21:47 8.4 °F 1.8 °F 1032.7 in North 3.7 mph 3.7 mph 63 % 0.0 in
21:52 8.3 °F 1.7 °F 1032.7 in North 3.9 mph 3.9 mph 63 % 0.0 in
21:55 4.6 °F 0.3 °F 1032.1 in Calm   1.6 mph 74 % 0.0 in
21:57 8.2 °F 1.8 °F 1032.7 in North 1.9 mph   64 % 0.0 in
22:02 8.0 °F 1.6 °F 1033.7 in North 3.7 mph 3.7 mph 64 % 0.0 in
22:05 4.5 °F 0.4 °F 1032.1 in Calm   3.2 mph 75 % 0.0 in
22:07 7.9 °F 1.5 °F 1033.7 in North 3.9 mph 3.9 mph 64 % 0.0 in
22:12 8.0 °F 1.6 °F 1033.7 in North 1.9 mph 2.3 mph 64 % 0.0 in
22:15 4.5 °F 0.4 °F 1032.1 in Calm   1.6 mph 75 % 0.0 in
22:17 8.0 °F 1.6 °F 1033.7 in Calm     64 % 0.0 in
22:22 8.0 °F 1.6 °F 1033.7 in North 1.9 mph 1.9 mph 64 % 0.0 in
22:25 4.4 °F 0.6 °F 1032.1 in Calm     76 % 0.0 in
22:27 8.1 °F 1.9 °F 1033.7 in Calm     65 % 0.0 in
22:32 8.2 °F 1.8 °F 1033.7 in North 3.5 mph 3.5 mph 64 % 0.0 in
22:35 4.5 °F 0.6 °F 1032.1 in Calm     76 % 0.0 in
22:37 8.2 °F 1.8 °F 1033.7 in North 1.9 mph 1.9 mph 64 % 0.0 in
22:42 8.3 °F 2.1 °F 1033.7 in North 1.9 mph 1.9 mph 65 % 0.0 in
22:45 4.5 °F 0.6 °F 1032.1 in Calm     76 % 0.0 in
22:47 8.3 °F 2.1 °F 1033.7 in North 1.9 mph 1.9 mph 65 % 0.0 in
22:52 8.2 °F 2.0 °F 1033.7 in North 1.9 mph 1.9 mph 65 % 0.0 in
22:55 4.5 °F 0.6 °F 1030.7 in Calm   1.6 mph 76 % 0.0 in
22:57 8.1 °F 1.9 °F 1033.7 in North 1.9 mph 1.9 mph 65 % 0.0 in
23:02 8.0 °F 1.8 °F 1033.7 in North 1.9 mph   65 % 0.0 in
23:05 4.4 °F 0.6 °F 1032.1 in Calm     76 % 0.0 in
23:07 8.0 °F 1.8 °F 1033.7 in Calm     65 % 0.0 in
23:12 7.9 °F 1.7 °F 1033.7 in Calm     65 % 0.0 in
23:15 4.3 °F 0.6 °F 1032.1 in Calm     77 % 0.0 in
23:17 7.9 °F 1.7 °F 1033.7 in North 3.9 mph 3.9 mph 65 % 0.0 in
23:22 7.7 °F 1.7 °F 1033.7 in North 1.9 mph   66 % 0.0 in
23:25 4.0 °F 0.2 °F 1032.7 in Calm   1.6 mph 76 % 0.0 in
23:27 7.7 °F 1.6 °F 1033.7 in North 3.9 mph 3.9 mph 65 % 0.0 in
23:32 7.9 °F 1.7 °F 1033.7 in North 1.9 mph 1.9 mph 65 % 0.0 in
23:35 4.0 °F 0.3 °F 1030.7 in Calm   3.2 mph 77 % 0.0 in
23:37 7.9 °F 1.9 °F 1033.7 in Calm     66 % 0.0 in
23:42 7.9 °F 1.7 °F 1033.7 in North 2.6 mph 2.6 mph 65 % 0.0 in
23:45 3.9 °F 0.2 °F 1030.7 in Calm     77 % 0.0 in
23:47 7.8 °F 1.8 °F 1033.7 in North 2.3 mph 2.3 mph 66 % 0.0 in
23:52 7.8 °F 1.8 °F 1033.7 in North 3.7 mph 3.7 mph 66 % 0.0 in
23:55 3.8 °F 0.1 °F 1030.7 in Calm     77 % 0.0 in
23:57 7.9 °F 1.9 °F 1033.7 in North 1.9 mph   66 % 0.0 in
Meteo Sesrovires
Elogis d' Weather Underground - 3.75 mb

Guio original per  Jim McMurry - jmcmurry@mwt.net Adaptat per a la plantilla per  Wim van der Kuil - Leuven-Template.eu

Trobareu la nostra informacio del temps tambe a:

Weather Underground

AWEKAS